Time;durP1;ratioP1;P1;durP2;ratioP2;P2;SDS_P1;SDS_P2;PMS_P1;PMS_P2;Temp;Humidity;BMP_temperature;BMP_pressure;BME280_temperature;BME280_humidity;BME280_pressure;Samples;Min_cycle;Max_cycle;Signal;HPM_P1;HPM_P2
2023/03/12 00:01:36;;;;;;;8.07;5.88;;;;;;;12.14;94.77;98496.81;5094622;28;20051;-46
2023/03/12 00:04:04;;;;;;;13.35;7.20;;;;;;;12.18;94.22;98512.97;5112885;28;20103;-46
2023/03/12 00:06:32;;;;;;;10.90;8.73;;;;;;;12.18;93.79;98508.50;5112784;28;20024;-46
2023/03/12 00:09:00;;;;;;;13.35;9.30;;;;;;;12.10;93.69;98511.41;5094528;28;20035;-46
2023/03/12 00:11:28;;;;;;;10.40;8.00;;;;;;;12.04;93.82;98503.56;5112959;28;20027;-48
2023/03/12 00:13:59;;;;;;;14.50;8.32;;;;;;;11.97;94.29;98491.28;5094528;28;20027;-47
2023/03/12 00:16:27;;;;;;;8.30;7.38;;;;;;;11.91;94.26;98493.94;5112742;28;20055;-47
2023/03/12 00:18:55;;;;;;;12.13;8.32;;;;;;;11.77;93.43;98495.81;5094465;28;20027;-47
2023/03/12 00:21:23;;;;;;;24.20;13.80;;;;;;;11.63;93.57;98499.56;5094389;28;20022;-47
2023/03/12 00:23:51;;;;;;;9.82;6.40;;;;;;;11.59;93.84;98499.19;5094261;28;20114;-47
2023/03/12 00:26:20;;;;;;;14.65;7.70;;;;;;;11.65;95.01;98505.41;5112861;28;20051;-47
2023/03/12 00:28:50;;;;;;;9.43;6.72;;;;;;;11.60;94.63;98496.34;5112557;28;20042;-47
2023/03/12 00:31:20;;;;;;;11.57;6.88;;;;;;;11.60;95.21;98506.06;5112465;28;20089;-46
2023/03/12 00:33:49;;;;;;;11.52;6.45;;;;;;;11.74;95.96;98504.16;5094269;28;20123;-47
2023/03/12 00:36:20;;;;;;;8.85;5.35;;;;;;;11.88;95.87;98504.88;5112226;28;20569;-47
2023/03/12 00:38:48;;;;;;;6.70;4.55;;;;;;;11.95;95.39;98511.72;5112459;28;20051;-46
2023/03/12 00:41:15;;;;;;;8.18;4.38;;;;;;;11.98;95.07;98507.84;5112033;28;20505;-47
2023/03/12 00:43:44;;;;;;;10.35;4.20;;;;;;;11.90;93.75;98506.28;5094068;28;20404;-47
2023/03/12 00:46:23;;;;;;;7.00;3.67;;;;;;;11.81;92.89;98502.28;5094209;28;20028;-48
2023/03/12 00:49:06;;;;;;;6.85;3.13;;;;;;;11.73;91.57;98494.63;5094020;28;20015;-47
2023/03/12 00:51:33;;;;;;;5.63;3.60;;;;;;;11.72;90.75;98493.03;5093883;28;20024;-46
2023/03/12 00:54:01;;;;;;;5.60;3.00;;;;;;;11.70;89.97;98495.06;5093927;28;20032;-47
2023/03/12 00:56:47;;;;;;;6.50;4.35;;;;;;;11.65;90.38;98500.97;5093397;28;20024;-47
2023/03/12 00:59:15;;;;;;;5.88;3.13;;;;;;;11.72;90.98;98503.56;5093751;28;20027;-47
2023/03/12 01:01:42;;;;;;;6.93;3.05;;;;;;;11.79;90.41;98514.81;5093893;28;20020;-47
2023/03/12 01:04:23;;;;;;;3.78;3.03;;;;;;;11.76;89.50;98513.44;5077134;28;20024;-48
2023/03/12 01:06:59;;;;;;;4.63;2.67;;;;;;;11.77;91.06;98516.84;5093779;28;20034;-47
2023/03/12 01:09:26;;;;;;;8.50;3.92;;;;;;;11.77;90.16;98516.84;5093790;28;20035;-47
2023/03/12 01:11:55;;;;;;;4.80;2.47;;;;;;;11.73;90.25;98516.50;5093664;28;20024;-47
2023/03/12 01:14:40;;;;;;;10.18;3.20;;;;;;;11.70;91.18;98516.91;5111944;28;20070;-48
2023/03/12 01:17:10;;;;;;;20.77;4.70;;;;;;;11.75;92.50;98522.34;5093748;28;20027;-47
2023/03/12 01:19:58;;;;;;;5.43;3.45;;;;;;;11.70;92.97;98529.25;5093705;28;20043;-46
2023/03/12 01:22:29;;;;;;;5.35;4.32;;;;;;;11.52;93.76;98533.38;5093637;28;20110;-46
2023/03/12 01:25:10;;;;;;;15.73;4.25;;;;;;;11.40;95.15;98541.13;5093731;28;20076;-46
2023/03/12 01:27:53;;;;;;;10.32;4.38;;;;;;;11.33;96.24;98544.81;5093665;28;20106;-45
2023/03/12 01:30:41;;;;;;;14.95;10.60;;;;;;;11.38;98.57;98551.03;5093434;28;20035;-45
2023/03/12 01:33:14;;;;;;;33.65;14.35;;;;;;;11.35;99.52;98540.94;5111885;28;20058;-46
2023/03/12 01:36:00;;;;;;;299.73;29.48;;;;;;;11.35;100.00;98551.47;5093544;28;20032;-45
2023/03/12 01:38:42;;;;;;;19.40;10.77;;;;;;;11.37;100.00;98546.00;5111863;28;20521;-45
2023/03/12 01:44:02;;;;;;;24.02;13.48;;;;;;;11.15;100.00;98543.66;5090320;28;20466;-45
2023/03/12 01:46:51;;;;;;;178.38;23.88;;;;;;;11.03;100.00;98541.84;5090761;28;20040;-45
2023/03/12 01:49:36;;;;;;;67.20;17.20;;;;;;;10.97;100.00;98543.50;5091461;28;20393;-45
2023/03/12 01:52:33;;;;;;;106.00;20.05;;;;;;;10.98;100.00;98542.47;5091151;28;20028;-45
2023/03/12 01:55:22;;;;;;;14.60;11.50;;;;;;;10.92;100.00;98544.09;5091260;28;20027;-45
2023/03/12 01:58:14;;;;;;;245.52;28.77;;;;;;;10.95;100.00;98545.53;5089959;28;20466;-45
2023/03/12 02:00:46;;;;;;;32.28;18.00;;;;;;;11.05;100.00;98545.09;5090855;28;20490;-45
2023/03/12 02:03:15;;;;;;;57.15;21.27;;;;;;;11.17;100.00;98546.06;5089923;28;20086;-45
2023/03/12 02:06:08;;;;;;;55.38;19.50;;;;;;;11.19;100.00;98544.03;5089902;28;20447;-45
2023/03/12 02:08:55;;;;;;;133.30;22.58;;;;;;;11.13;100.00;98547.50;5091155;28;20536;-45
2023/03/12 02:11:26;;;;;;;33.10;19.38;;;;;;;11.16;100.00;98547.06;5093359;28;20028;-46
2023/03/12 02:13:54;;;;;;;113.40;22.70;;;;;;;11.23;100.00;98552.28;5094777;28;20021;-45
2023/03/12 02:16:26;;;;;;;17.73;13.77;;;;;;;11.22;100.00;98553.31;5094731;28;20020;-45
2023/03/12 02:19:21;;;;;;;49.90;18.85;;;;;;;11.09;100.00;98562.06;5093418;28;20026;-45
2023/03/12 02:21:57;;;;;;;24.38;16.30;;;;;;;11.00;100.00;98566.72;5093808;28;20039;-46
2023/03/12 02:25:14;;;;;;;29.73;16.08;;;;;;;10.97;100.00;98570.56;5093266;28;20073;-45
2023/03/12 02:27:45;;;;;;;245.13;33.25;;;;;;;10.98;100.00;98564.28;5054324;28;20040;-46
2023/03/12 02:30:33;;;;;;;31.85;18.38;;;;;;;10.92;100.00;98561.69;5093116;28;20457;-45
2023/03/12 02:33:07;;;;;;;122.75;24.30;;;;;;;10.90;100.00;98561.09;5094276;28;20024;-46
2023/03/12 02:35:54;;;;;;;34.17;17.83;;;;;;;11.02;100.00;98562.06;5093047;28;20035;-45
2023/03/12 02:38:54;;;;;;;28.17;17.17;;;;;;;11.12;100.00;98561.63;5094329;28;20036;-45
2023/03/12 02:41:52;;;;;;;40.38;17.85;;;;;;;10.86;100.00;98559.88;5097871;28;20059;-45
2023/03/12 02:44:42;;;;;;;18.95;16.13;;;;;;;10.58;100.00;98550.41;5114804;28;20043;-44
2023/03/12 02:47:10;;;;;;;36.80;18.73;;;;;;;10.49;100.00;98546.41;5114341;28;20110;-45
2023/03/12 02:49:42;;;;;;;77.95;70.40;;;;;;;10.26;100.00;98544.16;5096113;28;20056;-45
2023/03/12 02:52:16;;;;;;;28.10;24.98;;;;;;;10.06;100.00;98542.34;5095990;28;20092;-45
2023/03/12 02:54:50;;;;;;;46.13;38.40;;;;;;;9.93;100.00;98537.88;5114356;28;20027;-45
2023/03/12 02:57:26;;;;;;;27.55;24.85;;;;;;;10.13;100.00;98540.50;5114168;28;20386;-46
2023/03/12 02:59:58;;;;;;;16.75;14.80;;;;;;;10.23;100.00;98544.56;5095889;28;20019;-45
2023/03/12 03:02:39;;;;;;;14.32;12.88;;;;;;;10.29;100.00;98535.88;5095905;28;20038;-45
2023/03/12 03:05:13;;;;;;;15.48;12.63;;;;;;;10.43;100.00;98552.47;5095782;28;20020;-44
2023/03/12 03:07:47;;;;;;;14.98;13.07;;;;;;;10.59;100.00;98546.81;5114142;28;20023;-45
2023/03/12 03:10:17;;;;;;;11.40;10.40;;;;;;;10.53;100.00;98543.16;5095707;28;20020;-44
2023/03/12 03:13:02;;;;;;;11.05;9.93;;;;;;;10.39;100.00;98552.84;5113972;28;20020;-46
2023/03/12 03:15:42;;;;;;;12.05;9.10;;;;;;;10.35;100.00;98545.59;5113921;28;20438;-46
2023/03/12 03:18:19;;;;;;;8.88;7.45;;;;;;;10.30;100.00;98546.22;5095520;28;20035;-46
2023/03/12 03:24:07;;;;;;;12.18;6.57;;;;;;;10.24;100.00;98554.88;5113870;28;20042;-45
2023/03/12 03:26:38;;;;;;;11.57;6.28;;;;;;;10.33;100.00;98543.19;5095337;28;20074;-44
2023/03/12 03:29:15;;;;;;;11.15;6.95;;;;;;;10.46;100.00;98555.47;5113646;28;20394;-46
2023/03/12 03:31:59;;;;;;;5.60;4.45;;;;;;;10.54;100.00;98554.47;5113413;28;20019;-46
2023/03/12 03:34:44;;;;;;;11.00;4.95;;;;;;;10.61;100.00;98557.09;5113622;28;20093;-46
2023/03/12 03:37:21;;;;;;;8.85;5.47;;;;;;;10.71;100.00;98560.13;5095057;28;20103;-45
2023/03/12 03:39:59;;;;;;;7.85;5.35;;;;;;;10.78;100.00;98555.66;5113481;28;20034;-46
2023/03/12 03:42:35;;;;;;;8.13;4.00;;;;;;;10.76;100.00;98552.41;5100977;28;20048;-46
2023/03/12 03:45:02;;;;;;;5.22;3.95;;;;;;;10.62;100.00;98556.06;5093014;28;20046;-45
2023/03/12 03:47:28;;;;;;;6.05;3.55;;;;;;;10.52;100.00;98557.31;5074615;28;20031;-45
2023/03/12 03:49:55;;;;;;;4.15;3.35;;;;;;;10.51;100.00;98560.94;5092805;28;20488;-45
2023/03/12 03:52:22;;;;;;;5.95;3.97;;;;;;;10.55;100.00;98566.59;5093012;28;20461;-45
2023/03/12 03:54:49;;;;;;;6.50;3.97;;;;;;;10.67;100.00;98564.97;5074496;28;20024;-45
2023/03/12 03:57:16;;;;;;;5.93;3.80;;;;;;;10.72;100.00;98577.47;5092719;28;20020;-45
2023/03/12 03:59:43;;;;;;;4.28;3.53;;;;;;;10.72;100.00;98574.84;5092622;28;20020;-45
2023/03/12 04:02:11;;;;;;;6.25;4.13;;;;;;;10.70;100.00;98566.38;5074433;28;20035;-45
2023/03/12 04:04:38;;;;;;;5.13;3.72;;;;;;;10.70;100.00;98574.25;5092541;28;20032;-45
2023/03/12 04:07:07;;;;;;;5.40;4.20;;;;;;;10.72;100.00;98582.72;5092546;28;20028;-45
2023/03/12 04:09:34;;;;;;;6.78;3.70;;;;;;;10.67;100.00;98579.91;5092462;28;20070;-45
2023/03/12 04:12:02;;;;;;;7.40;4.70;;;;;;;10.64;100.00;98588.19;5074102;28;20024;-45
2023/03/12 04:14:29;;;;;;;7.00;4.47;;;;;;;10.62;100.00;98590.19;5074271;28;20024;-46
2023/03/12 04:16:56;;;;;;;7.85;4.20;;;;;;;10.72;100.00;98594.00;5092412;28;20064;-45
2023/03/12 04:19:23;;;;;;;5.43;4.10;;;;;;;10.79;100.00;98592.19;5092383;28;20020;-45
2023/03/12 04:21:51;;;;;;;4.53;3.70;;;;;;;10.78;100.00;98595.03;5092291;28;20102;-45
2023/03/12 04:24:19;;;;;;;15.25;7.25;;;;;;;10.83;100.00;98595.22;5074047;28;20140;-45
2023/03/12 04:26:45;;;;;;;13.13;8.73;;;;;;;10.81;100.00;98601.72;5092238;28;20028;-46
2023/03/12 04:29:14;;;;;;;12.82;8.82;;;;;;;10.74;100.00;98606.94;5092211;28;20016;-45
2023/03/12 04:31:41;;;;;;;15.52;11.05;;;;;;;10.71;100.00;98607.38;5091226;28;20035;-46
2023/03/12 04:34:09;;;;;;;15.90;11.23;;;;;;;10.66;100.00;98612.41;5074009;28;20086;-45
2023/03/12 04:36:36;;;;;;;17.17;11.80;;;;;;;10.68;100.00;98618.25;5092252;28;20055;-46
2023/03/12 04:39:12;;;;;;;17.08;12.10;;;;;;;10.70;100.00;98618.84;5073918;28;20055;-46
2023/03/12 04:41:39;;;;;;;15.45;11.57;;;;;;;10.72;100.00;98622.09;5092066;28;20046;-45
2023/03/12 04:44:19;;;;;;;14.82;12.27;;;;;;;10.73;100.00;98621.09;5091253;28;20452;-46
2023/03/12 04:47:01;;;;;;;17.00;12.05;;;;;;;10.68;100.00;98626.94;5073795;28;20050;-46
2023/03/12 04:49:38;;;;;;;16.55;11.25;;;;;;;10.66;100.00;98620.28;5073739;28;20051;-46
2023/03/12 04:52:08;;;;;;;14.05;10.38;;;;;;;10.61;100.00;98630.59;5091726;28;20468;-46
2023/03/12 04:54:49;;;;;;;16.65;12.30;;;;;;;10.63;100.00;98639.06;5091903;28;20024;-46
2023/03/12 04:57:29;;;;;;;17.17;13.25;;;;;;;10.66;100.00;98626.31;5091749;28;20028;-46
2023/03/12 05:00:12;;;;;;;14.68;12.43;;;;;;;10.62;100.00;98634.81;5091611;28;20056;-46
2023/03/12 05:02:48;;;;;;;14.85;12.43;;;;;;;10.59;100.00;98639.44;5091639;28;20034;-46
2023/03/12 05:05:27;;;;;;;18.40;12.07;;;;;;;10.57;100.00;98632.78;5056898;28;20568;-46
2023/03/12 05:08:08;;;;;;;15.75;12.77;;;;;;;10.56;100.00;98644.28;5091742;28;20023;-45
2023/03/12 05:10:46;;;;;;;15.73;12.57;;;;;;;10.59;100.00;98636.03;5073352;28;20043;-46
2023/03/12 05:13:29;;;;;;;14.00;12.23;;;;;;;10.64;100.00;98641.47;5073414;28;20035;-46
2023/03/12 05:16:04;;;;;;;17.00;12.77;;;;;;;10.68;100.00;98645.28;5091662;28;20013;-45
2023/03/12 05:18:44;;;;;;;15.32;12.43;;;;;;;10.81;100.00;98648.97;5073401;28;20398;-46
2023/03/12 05:21:20;;;;;;;14.90;11.45;;;;;;;10.81;100.00;98652.38;5073349;28;20025;-45
2023/03/12 05:23:48;;;;;;;15.30;11.75;;;;;;;10.77;100.00;98653.81;5073437;28;20106;-45
2023/03/12 05:26:43;;;;;;;16.65;12.18;;;;;;;10.71;100.00;98658.03;5073310;28;20024;-46
2023/03/12 05:29:16;;;;;;;14.32;12.02;;;;;;;10.62;100.00;98661.84;5091456;28;20020;-45
2023/03/12 05:31:48;;;;;;;18.85;12.70;;;;;;;10.57;100.00;98664.28;5091389;28;20063;-46
2023/03/12 05:34:23;;;;;;;17.02;13.82;;;;;;;10.48;100.00;98671.53;5091376;28;20085;-46
2023/03/12 05:37:03;;;;;;;21.60;13.45;;;;;;;10.29;100.00;98664.41;5091386;28;20487;-46
2023/03/12 05:39:31;;;;;;;15.27;12.68;;;;;;;10.12;100.00;98663.97;5073275;28;20036;-45
2023/03/12 05:42:15;;;;;;;17.50;13.75;;;;;;;9.98;100.00;98671.00;5091436;28;20397;-46
2023/03/12 05:44:50;;;;;;;15.38;13.25;;;;;;;9.88;100.00;98673.97;5076401;28;20048;-44
2023/03/12 05:47:21;;;;;;;18.65;14.80;;;;;;;9.90;100.00;98674.59;5095294;28;20020;-45
2023/03/12 05:50:09;;;;;;;22.88;15.50;;;;;;;9.80;100.00;98674.97;5077030;28;20063;-45
2023/03/12 05:52:51;;;;;;;18.63;13.13;;;;;;;9.66;100.00;98682.94;5095050;28;20024;-46
2023/03/12 05:55:18;;;;;;;29.70;16.77;;;;;;;9.65;100.00;98684.75;5095010;28;20496;-45
2023/03/12 05:57:46;;;;;;;23.90;16.35;;;;;;;9.65;100.00;98687.38;5095044;28;20393;-45
2023/03/12 06:00:14;;;;;;;19.95;16.48;;;;;;;9.65;100.00;98689.19;5095033;28;20030;-45
2023/03/12 06:02:41;;;;;;;21.30;16.13;;;;;;;9.64;100.00;98693.63;5095020;28;20059;-45
2023/03/12 06:05:10;;;;;;;79.22;19.00;;;;;;;9.70;100.00;98700.72;5094939;28;20111;-45
2023/03/12 06:07:37;;;;;;;26.83;17.25;;;;;;;9.83;100.00;98704.41;5094777;28;20016;-45
2023/03/12 06:10:04;;;;;;;22.63;15.30;;;;;;;9.99;100.00;98709.31;5095073;28;20437;-45
2023/03/12 06:12:33;;;;;;;19.58;14.65;;;;;;;10.14;100.00;98714.38;5094997;28;20027;-45
2023/03/12 06:15:00;;;;;;;19.50;14.85;;;;;;;10.30;100.00;98715.88;5094788;28;20035;-45
2023/03/12 06:17:29;;;;;;;34.95;15.38;;;;;;;10.39;100.00;98720.75;5094674;28;20035;-45
2023/03/12 06:19:56;;;;;;;41.17;16.90;;;;;;;10.47;100.00;98738.13;5094518;28;20158;-45
2023/03/12 06:22:23;;;;;;;193.02;20.23;;;;;;;10.52;100.00;98724.41;5076400;28;20430;-45
2023/03/12 06:24:51;;;;;;;19.42;14.90;;;;;;;10.57;100.00;98728.06;5094493;28;20024;-46
2023/03/12 06:27:18;;;;;;;84.32;15.75;;;;;;;10.67;100.00;98732.13;5094519;28;20107;-45
2023/03/12 06:29:46;;;;;;;30.92;16.08;;;;;;;10.79;100.00;98741.84;5094681;28;20496;-45
2023/03/12 06:32:13;;;;;;;23.58;16.10;;;;;;;10.90;100.00;98739.63;5076170;28;20016;-45
2023/03/12 06:34:40;;;;;;;44.70;18.30;;;;;;;11.06;100.00;98744.47;5076230;28;20027;-45
2023/03/12 06:37:07;;;;;;;26.33;17.63;;;;;;;11.29;100.00;98741.44;5094293;28;20028;-45
2023/03/12 06:39:33;;;;;;;23.17;15.45;;;;;;;11.75;100.00;98745.81;5094285;28;20051;-45
2023/03/12 06:42:01;;;;;;;23.67;15.82;;;;;;;12.15;100.00;98737.00;5075998;28;20028;-45
2023/03/12 06:44:28;;;;;;;73.70;16.63;;;;;;;12.38;100.00;98744.41;5075781;28;20110;-45
2023/03/12 06:46:55;;;;;;;94.18;17.02;;;;;;;11.97;100.00;98741.13;5075886;28;20051;-45
2023/03/12 06:49:22;;;;;;;21.88;13.18;;;;;;;11.59;100.00;98749.69;5094113;28;20020;-45
2023/03/12 06:51:50;;;;;;;11.55;10.40;;;;;;;11.27;100.00;98748.72;5093965;28;20050;-45
2023/03/12 06:54:16;;;;;;;14.25;11.70;;;;;;;11.21;100.00;98752.16;5075464;28;20534;-45
2023/03/12 06:56:58;;;;;;;13.18;11.82;;;;;;;11.20;100.00;98751.34;5093238;28;20024;-47
2023/03/12 06:59:42;;;;;;;12.45;10.35;;;;;;;11.33;100.00;98753.16;5075945;28;20085;-45
2023/03/12 07:02:12;;;;;;;11.07;8.70;;;;;;;11.40;100.00;98751.31;5075200;28;20062;-45
2023/03/12 07:04:38;;;;;;;8.73;7.47;;;;;;;11.50;100.00;98753.53;5093784;28;20027;-45
2023/03/12 07:07:10;;;;;;;16.75;10.60;;;;;;;11.51;100.00;98757.81;5093745;28;20028;-46
2023/03/12 07:09:38;;;;;;;11.77;7.72;;;;;;;11.71;100.00;98754.31;5093672;28;20060;-45
2023/03/12 07:12:07;;;;;;;9.40;6.68;;;;;;;11.74;100.00;98748.66;5093607;28;20028;-46
2023/03/12 07:14:33;;;;;;;12.23;6.10;;;;;;;12.22;100.00;98755.41;5093598;28;20393;-46
2023/03/12 07:17:01;;;;;;;8.50;7.30;;;;;;;13.49;100.00;98761.47;5093492;28;20489;-46
2023/03/12 07:19:29;;;;;;;8.88;5.22;;;;;;;13.92;95.98;98755.38;5093395;28;20103;-46
2023/03/12 07:22:10;;;;;;;5.65;4.05;;;;;;;14.17;96.98;98759.75;5095405;28;20027;-45
2023/03/12 07:24:36;;;;;;;6.32;3.63;;;;;;;15.03;96.17;98749.84;5095670;28;20542;-45
2023/03/12 07:27:08;;;;;;;7.18;3.60;;;;;;;15.74;92.14;98749.88;5113792;28;20032;-45
2023/03/12 07:29:35;;;;;;;4.15;3.17;;;;;;;16.33;87.99;98755.81;5095341;28;20370;-45
2023/03/12 07:32:01;;;;;;;5.88;3.10;;;;;;;15.95;87.72;98751.91;5113855;28;20027;-45
2023/03/12 07:34:29;;;;;;;5.90;3.88;;;;;;;15.33;86.48;98738.34;5095307;28;20397;-45
2023/03/12 07:36:56;;;;;;;12.20;7.63;;;;;;;14.75;88.70;98731.97;5113628;28;20053;-45
2023/03/12 07:39:22;;;;;;;8.45;3.70;;;;;;;14.35;87.39;98748.34;5113578;28;20020;-45
2023/03/12 07:41:50;;;;;;;6.22;3.97;;;;;;;14.15;88.51;98761.78;5113313;28;20520;-46
2023/03/12 07:44:17;;;;;;;7.53;2.92;;;;;;;15.19;91.31;98782.72;5096104;28;20464;-46
2023/03/12 07:46:45;;;;;;;6.28;3.72;;;;;;;15.82;89.10;98778.63;5074781;28;20498;-46
2023/03/12 07:49:12;;;;;;;5.03;3.40;;;;;;;15.72;88.63;98781.88;5074765;28;20051;-46
2023/03/12 07:51:39;;;;;;;8.45;4.13;;;;;;;15.56;90.63;98785.97;5092731;28;20018;-46
2023/03/12 07:54:06;;;;;;;6.30;5.22;;;;;;;16.53;92.25;98795.16;5092752;28;20036;-46
2023/03/12 07:56:47;;;;;;;13.25;10.05;;;;;;;18.85;93.02;98802.75;5057907;28;20024;-44
2023/03/12 07:59:15;;;;;;;13.05;9.25;;;;;;;20.66;81.31;98798.28;5092750;28;20043;-45
2023/03/12 08:01:43;;;;;;;11.40;8.80;;;;;;;20.66;75.13;98808.94;5092653;28;20433;-45
2023/03/12 08:04:22;;;;;;;10.63;9.57;;;;;;;19.46;75.74;98805.16;5074443;28;20643;-45
2023/03/12 08:06:52;;;;;;;10.25;9.15;;;;;;;18.39;75.71;98810.25;5092330;28;20393;-45
2023/03/12 08:09:17;;;;;;;10.48;9.48;;;;;;;17.66;75.87;98812.97;5074312;28;20032;-45
2023/03/12 08:11:45;;;;;;;12.10;10.30;;;;;;;17.16;77.58;98809.28;5092341;28;20032;-45
2023/03/12 08:14:12;;;;;;;12.25;10.65;;;;;;;16.75;80.05;98819.13;5092433;28;20032;-45
2023/03/12 08:16:38;;;;;;;13.90;10.65;;;;;;;16.40;82.25;98826.41;5092335;28;20020;-45
2023/03/12 08:19:06;;;;;;;10.82;9.73;;;;;;;16.28;84.63;98827.25;5074157;28;20032;-46
2023/03/12 08:21:33;;;;;;;10.27;8.90;;;;;;;16.52;85.72;98824.53;5092544;28;20027;-45
2023/03/12 08:24:00;;;;;;;12.73;10.48;;;;;;;16.71;82.75;98823.31;5092288;28;20103;-45
2023/03/12 08:26:27;;;;;;;10.90;9.77;;;;;;;16.65;83.89;98813.66;5073974;28;20027;-44
2023/03/12 08:28:53;;;;;;;9.82;5.20;;;;;;;16.72;83.75;98824.09;5089460;28;20142;-45
2023/03/12 08:31:22;;;;;;;10.95;9.80;;;;;;;17.14;83.54;98826.47;5112607;28;20016;-45
2023/03/12 08:33:49;;;;;;;10.60;9.52;;;;;;;17.80;82.48;98831.22;5094324;28;20055;-45
2023/03/12 08:36:16;;;;;;;9.77;7.97;;;;;;;17.93;82.20;98818.44;5112514;28;20020;-45
2023/03/12 08:38:44;;;;;;;11.65;8.43;;;;;;;18.27;82.13;98821.00;5094225;28;20085;-45
2023/03/12 08:41:11;;;;;;;11.50;7.97;;;;;;;18.76;82.29;98830.84;5112461;28;20026;-45
2023/03/12 08:43:38;;;;;;;11.25;8.13;;;;;;;19.23;78.81;98832.91;5100677;28;20056;-44
2023/03/12 08:46:05;;;;;;;9.63;7.80;;;;;;;19.05;78.27;98833.28;5112365;28;20035;-45
2023/03/12 08:48:32;;;;;;;10.13;7.53;;;;;;;18.50;78.65;98843.84;5112353;28;20495;-45
2023/03/12 08:51:03;;;;;;;8.18;7.38;;;;;;;18.06;79.30;98848.34;5112232;28;20034;-45
2023/03/12 08:53:30;;;;;;;7.45;6.75;;;;;;;17.73;79.11;98853.44;5112293;28;20020;-44
2023/03/12 08:56:09;;;;;;;13.75;7.07;;;;;;;17.42;80.07;98843.38;5112127;28;20055;-45
2023/03/12 08:58:35;;;;;;;7.93;6.13;;;;;;;17.21;80.45;98847.56;5094217;28;20178;-45
2023/03/12 09:01:11;;;;;;;7.05;6.40;;;;;;;16.84;80.43;98846.13;5111895;28;20028;-45
2023/03/12 09:03:40;;;;;;;9.18;6.07;;;;;;;16.75;80.69;98850.94;5112238;28;20024;-44
2023/03/12 09:06:15;;;;;;;6.72;6.03;;;;;;;16.58;79.67;98861.50;5093798;28;20020;-44
2023/03/12 09:08:46;;;;;;;6.00;5.28;;;;;;;16.54;79.67;98859.53;5112102;28;20027;-45
2023/03/12 09:11:32;;;;;;;6.65;5.07;;;;;;;16.66;80.19;98873.56;5112068;28;20019;-45
2023/03/12 09:14:08;;;;;;;9.82;5.43;;;;;;;16.97;79.89;98879.47;5093636;28;20515;-46
2023/03/12 09:16:34;;;;;;;8.65;5.70;;;;;;;17.17;79.19;98881.69;5093739;28;20053;-45
2023/03/12 09:19:20;;;;;;;6.68;4.78;;;;;;;17.31;77.87;98888.31;5114231;28;20016;-44
2023/03/12 09:21:59;;;;;;;7.95;4.13;;;;;;;17.35;76.24;98891.28;5116287;28;20035;-45
2023/03/12 09:24:41;;;;;;;5.85;4.60;;;;;;;17.14;74.95;98906.03;5116179;28;20023;-45
2023/03/12 09:27:19;;;;;;;8.15;4.43;;;;;;;17.00;74.24;98910.00;5116082;28;20019;-45
2023/03/12 09:30:06;;;;;;;5.32;3.00;;;;;;;16.88;75.20;98924.13;5116078;28;20020;-45
2023/03/12 09:32:44;;;;;;;5.63;4.22;;;;;;;16.63;76.50;98934.19;5115986;28;20047;-45
2023/03/12 09:35:24;;;;;;;5.70;3.70;;;;;;;16.32;77.84;98922.94;5097688;28;20397;-45
2023/03/12 09:37:51;;;;;;;7.20;3.40;;;;;;;15.99;78.54;98929.59;5097589;28;20396;-44
2023/03/12 09:40:23;;;;;;;9.25;4.05;;;;;;;15.69;79.93;98927.81;5115878;28;20528;-44
2023/03/12 09:42:59;;;;;;;7.85;2.28;;;;;;;15.28;78.54;98941.84;5093817;28;20055;-44
2023/03/12 09:45:30;;;;;;;4.25;1.50;;;;;;;14.82;79.31;98956.47;5095483;28;20039;-45
2023/03/12 09:48:00;;;;;;;7.07;2.53;;;;;;;14.31;79.90;98964.47;5095454;28;20069;-46
2023/03/12 09:50:29;;;;;;;28.73;25.98;;;;;;;14.02;83.09;98960.66;5095330;28;20027;-46
2023/03/12 09:53:03;;;;;;;67.38;60.00;;;;;;;13.83;83.94;98978.25;5095107;28;20020;-46
2023/03/12 09:55:44;;;;;;;10.13;5.85;;;;;;;13.76;85.18;98977.50;5093854;28;20119;-46
2023/03/12 09:58:23;;;;;;;6.32;2.90;;;;;;;13.74;84.20;98977.72;5095166;28;20032;-46
2023/03/12 10:01:14;;;;;;;8.43;2.45;;;;;;;13.75;84.79;98992.50;5095054;28;20028;-46
2023/03/12 10:03:42;;;;;;;27.02;20.77;;;;;;;13.76;85.29;98993.31;5093181;28;20082;-47
2023/03/12 10:06:20;;;;;;;14.02;2.47;;;;;;;13.89;83.72;98997.72;5094855;28;20404;-47
2023/03/12 10:08:48;;;;;;;13.90;3.03;;;;;;;14.05;83.16;98994.53;5094918;28;20067;-47
2023/03/12 10:11:47;;;;;;;11.40;3.17;;;;;;;14.24;82.46;98987.47;5094788;28;20127;-46
2023/03/12 10:14:56;;;;;;;10.80;2.60;;;;;;;14.84;82.99;98978.19;5094906;28;20032;-46
2023/03/12 10:18:07;;;;;;;14.90;3.13;;;;;;;15.77;81.59;98971.69;5094569;28;20031;-47
2023/03/12 10:20:53;;;;;;;10.27;2.78;;;;;;;16.84;77.72;98969.88;5094701;28;20055;-47
2023/03/12 10:23:47;;;;;;;13.65;3.35;;;;;;;17.82;75.89;98970.63;5094575;28;20024;-47
2023/03/12 10:26:48;;;;;;;9.88;2.85;;;;;;;18.88;73.72;98961.84;5094643;28;20043;-47
2023/03/12 10:29:34;;;;;;;7.82;2.25;;;;;;;19.36;69.33;98960.22;5062899;28;20131;-45
2023/03/12 10:32:24;;;;;;;10.88;2.65;;;;;;;19.49;65.95;98953.69;5094456;28;20032;-45
2023/03/12 10:35:20;;;;;;;10.00;2.55;;;;;;;19.10;64.66;98955.72;5094416;28;20028;-45
2023/03/12 10:38:27;;;;;;;;;;;;;;;18.80;68.35;98942.84;5094897;28;20077;-45
2023/03/12 10:41:31;;;;;;;8.90;2.50;;;;;;;18.75;67.30;98952.34;5094286;28;19918;-46
2023/03/12 10:44:33;;;;;;;8.48;2.75;;;;;;;19.35;63.58;98957.81;5092720;28;20060;-46
2023/03/12 10:47:39;;;;;;;7.80;2.15;;;;;;;20.18;62.13;98946.81;5094109;28;20036;-46
2023/03/12 10:50:45;;;;;;;14.63;3.20;;;;;;;20.86;58.48;98952.25;5092848;28;20449;-45
2023/03/12 10:53:31;;;;;;;8.77;2.50;;;;;;;20.82;55.65;98942.38;5094193;28;20032;-45
2023/03/12 10:56:01;;;;;;;9.80;2.63;;;;;;;20.67;52.88;98949.25;5094430;28;20467;-45
2023/03/12 10:58:41;;;;;;;12.75;3.40;;;;;;;20.86;51.70;98949.59;5094082;28;20039;-45
2023/03/12 11:01:44;;;;;;;14.38;3.78;;;;;;;20.88;52.87;98947.47;5093821;28;20432;-46
2023/03/12 11:04:30;;;;;;;12.50;3.03;;;;;;;20.98;51.62;98948.56;5093963;28;20478;-46
2023/03/12 11:10:22;;;;;;;14.52;4.68;;;;;;;20.41;51.55;98939.50;5093751;28;20065;-45
2023/03/12 11:13:01;;;;;;;7.72;2.60;;;;;;;20.26;50.73;98938.34;5092175;28;20024;-45
2023/03/12 11:15:40;;;;;;;10.80;3.35;;;;;;;20.88;51.30;98952.78;5093716;28;20024;-46
2023/03/12 11:18:34;;;;;;;9.57;2.42;;;;;;;21.15;49.15;98955.28;5093680;28;20051;-45
2023/03/12 11:21:08;;;;;;;9.52;2.65;;;;;;;21.07;48.13;98947.81;5092226;28;20089;-46
2023/03/12 11:23:38;;;;;;;9.32;2.33;;;;;;;21.08;47.05;98953.94;5093573;28;20046;-45
2023/03/12 11:26:18;;;;;;;10.95;2.38;;;;;;;21.31;47.39;98966.03;5092099;28;20031;-45
2023/03/12 11:29:00;;;;;;;11.95;2.40;;;;;;;21.39;45.74;98960.16;5093491;28;20059;-45
2023/03/12 11:32:09;;;;;;;12.18;2.33;;;;;;;21.40;45.12;98959.09;5092071;28;20055;-46
2023/03/12 11:34:38;;;;;;;13.50;2.80;;;;;;;21.00;45.64;98965.91;5092019;28;20068;-45
2023/03/12 11:37:34;;;;;;;9.73;2.28;;;;;;;21.18;46.78;98964.63;5091955;28;20024;-45
2023/03/12 11:40:18;;;;;;;;;;;;;;;21.89;49.89;98968.50;5093891;28;20378;-45
2023/03/12 11:43:04;;;;;;;7.15;2.15;;;;;;;21.99;45.55;98965.81;5092457;28;20302;-45
2023/03/12 11:45:59;;;;;;;7.68;2.05;;;;;;;22.25;44.53;98955.91;5093044;28;20035;-45
2023/03/12 11:48:53;;;;;;;7.40;2.00;;;;;;;22.23;43.02;98959.91;5095091;28;20058;-46
2023/03/12 11:52:27;;;;;;;9.52;1.90;;;;;;;22.31;44.96;98954.84;5113343;28;20034;-45
2023/03/12 11:55:51;;;;;;;8.25;2.42;;;;;;;22.47;41.76;98947.56;5050328;28;20112;-45
2023/03/12 11:59:09;;;;;;;9.13;1.63;;;;;;;21.84;43.43;98947.94;5043332;28;20350;-45
2023/03/12 12:01:48;;;;;;;5.35;1.98;;;;;;;21.45;44.24;98950.28;5033537;28;20029;-45
2023/03/12 12:04:45;;;;;;;7.35;2.53;;;;;;;21.11;44.65;98943.53;5050354;28;20035;-45
2023/03/12 12:07:41;;;;;;;7.47;2.55;;;;;;;20.78;45.46;98946.63;5050253;28;20021;-46
2023/03/12 12:10:54;;;;;;;7.80;2.50;;;;;;;20.66;45.99;98930.84;5033507;28;20529;-46
2023/03/12 12:14:04;;;;;;;8.63;2.13;;;;;;;20.93;46.33;98931.47;5050032;28;20028;-46